sensor_id;sensor_type;location;lat;lon;timestamp;P1;durP1;ratioP1;P2;durP2;ratioP2
31728;SDS011;18309;43.658;1.312;2023-11-19T00:02:18;28.00;;;14.30;;
31728;SDS011;18309;43.658;1.312;2023-11-19T00:04:44;31.30;;;14.68;;
31728;SDS011;18309;43.658;1.312;2023-11-19T00:07:10;31.60;;;13.70;;
31728;SDS011;18309;43.658;1.312;2023-11-19T00:09:38;33.25;;;14.80;;
31728;SDS011;18309;43.658;1.312;2023-11-19T00:12:04;33.10;;;14.93;;
31728;SDS011;18309;43.658;1.312;2023-11-19T00:14:31;31.08;;;15.40;;
31728;SDS011;18309;43.658;1.312;2023-11-19T00:16:56;37.72;;;18.38;;
31728;SDS011;18309;43.658;1.312;2023-11-19T00:19:22;45.13;;;19.60;;
31728;SDS011;18309;43.658;1.312;2023-11-19T00:21:48;41.50;;;20.67;;
31728;SDS011;18309;43.658;1.312;2023-11-19T00:24:13;49.72;;;23.02;;
31728;SDS011;18309;43.658;1.312;2023-11-19T00:26:41;54.53;;;23.88;;
31728;SDS011;18309;43.658;1.312;2023-11-19T00:29:07;44.08;;;20.77;;
31728;SDS011;18309;43.658;1.312;2023-11-19T00:31:33;46.88;;;20.00;;
31728;SDS011;18309;43.658;1.312;2023-11-19T00:33:59;39.28;;;17.55;;
31728;SDS011;18309;43.658;1.312;2023-11-19T00:36:24;40.20;;;17.55;;
31728;SDS011;18309;43.658;1.312;2023-11-19T00:38:50;39.00;;;17.35;;
31728;SDS011;18309;43.658;1.312;2023-11-19T00:41:17;45.42;;;19.83;;
31728;SDS011;18309;43.658;1.312;2023-11-19T00:43:44;61.67;;;27.20;;
31728;SDS011;18309;43.658;1.312;2023-11-19T00:46:09;62.88;;;25.08;;
31728;SDS011;18309;43.658;1.312;2023-11-19T00:48:38;59.15;;;23.52;;
31728;SDS011;18309;43.658;1.312;2023-11-19T00:51:04;40.85;;;20.05;;
31728;SDS011;18309;43.658;1.312;2023-11-19T00:53:30;31.00;;;16.42;;
31728;SDS011;18309;43.658;1.312;2023-11-19T00:55:57;33.25;;;14.30;;
31728;SDS011;18309;43.658;1.312;2023-11-19T00:58:23;23.75;;;12.40;;
31728;SDS011;18309;43.658;1.312;2023-11-19T01:00:48;24.73;;;12.88;;
31728;SDS011;18309;43.658;1.312;2023-11-19T01:03:14;28.67;;;13.15;;
31728;SDS011;18309;43.658;1.312;2023-11-19T01:05:43;20.98;;;10.55;;
31728;SDS011;18309;43.658;1.312;2023-11-19T01:08:09;23.38;;;9.77;;
31728;SDS011;18309;43.658;1.312;2023-11-19T01:10:38;17.13;;;9.70;;
31728;SDS011;18309;43.658;1.312;2023-11-19T01:13:04;21.10;;;10.05;;
31728;SDS011;18309;43.658;1.312;2023-11-19T01:15:31;23.33;;;11.55;;
31728;SDS011;18309;43.658;1.312;2023-11-19T01:17:57;26.25;;;11.32;;
31728;SDS011;18309;43.658;1.312;2023-11-19T01:20:22;24.60;;;10.57;;
31728;SDS011;18309;43.658;1.312;2023-11-19T01:22:49;20.80;;;10.52;;
31728;SDS011;18309;43.658;1.312;2023-11-19T01:25:15;22.90;;;10.80;;
31728;SDS011;18309;43.658;1.312;2023-11-19T01:27:41;26.00;;;10.40;;
31728;SDS011;18309;43.658;1.312;2023-11-19T01:30:08;23.42;;;9.18;;
31728;SDS011;18309;43.658;1.312;2023-11-19T01:35:03;18.08;;;8.70;;
31728;SDS011;18309;43.658;1.312;2023-11-19T01:37:29;16.67;;;9.02;;
31728;SDS011;18309;43.658;1.312;2023-11-19T01:39:56;15.55;;;8.20;;
31728;SDS011;18309;43.658;1.312;2023-11-19T01:42:22;28.45;;;10.27;;
31728;SDS011;18309;43.658;1.312;2023-11-19T01:44:59;26.00;;;10.38;;
31728;SDS011;18309;43.658;1.312;2023-11-19T01:47:26;17.92;;;9.13;;
31728;SDS011;18309;43.658;1.312;2023-11-19T01:49:53;22.83;;;10.98;;
31728;SDS011;18309;43.658;1.312;2023-11-19T01:52:21;27.27;;;12.05;;
31728;SDS011;18309;43.658;1.312;2023-11-19T01:54:47;26.70;;;12.15;;
31728;SDS011;18309;43.658;1.312;2023-11-19T01:57:13;28.50;;;11.15;;
31728;SDS011;18309;43.658;1.312;2023-11-19T01:59:39;27.45;;;10.63;;
31728;SDS011;18309;43.658;1.312;2023-11-19T02:02:07;24.02;;;9.93;;
31728;SDS011;18309;43.658;1.312;2023-11-19T02:04:33;21.23;;;9.23;;
31728;SDS011;18309;43.658;1.312;2023-11-19T02:06:59;18.92;;;8.85;;
31728;SDS011;18309;43.658;1.312;2023-11-19T02:09:25;16.80;;;8.40;;
31728;SDS011;18309;43.658;1.312;2023-11-19T02:11:52;21.35;;;8.48;;
31728;SDS011;18309;43.658;1.312;2023-11-19T02:14:18;19.17;;;8.23;;
31728;SDS011;18309;43.658;1.312;2023-11-19T02:16:50;20.60;;;8.93;;
31728;SDS011;18309;43.658;1.312;2023-11-19T02:19:19;14.45;;;7.90;;
31728;SDS011;18309;43.658;1.312;2023-11-19T02:21:45;14.75;;;8.05;;
31728;SDS011;18309;43.658;1.312;2023-11-19T02:24:10;17.13;;;7.38;;
31728;SDS011;18309;43.658;1.312;2023-11-19T02:29:07;18.60;;;7.32;;
31728;SDS011;18309;43.658;1.312;2023-11-19T02:31:33;15.93;;;6.88;;
31728;SDS011;18309;43.658;1.312;2023-11-19T02:34:00;16.83;;;7.80;;
31728;SDS011;18309;43.658;1.312;2023-11-19T02:36:27;12.77;;;7.13;;
31728;SDS011;18309;43.658;1.312;2023-11-19T02:38:53;13.25;;;7.10;;
31728;SDS011;18309;43.658;1.312;2023-11-19T02:41:19;17.15;;;8.13;;
31728;SDS011;18309;43.658;1.312;2023-11-19T02:43:45;18.65;;;8.23;;
31728;SDS011;18309;43.658;1.312;2023-11-19T02:46:13;48.70;;;20.05;;
31728;SDS011;18309;43.658;1.312;2023-11-19T02:48:39;42.95;;;18.83;;
31728;SDS011;18309;43.658;1.312;2023-11-19T02:51:05;35.88;;;17.35;;
31728;SDS011;18309;43.658;1.312;2023-11-19T02:53:34;55.35;;;25.38;;
31728;SDS011;18309;43.658;1.312;2023-11-19T02:56:00;34.47;;;13.98;;
31728;SDS011;18309;43.658;1.312;2023-11-19T02:58:36;31.02;;;13.27;;
31728;SDS011;18309;43.658;1.312;2023-11-19T03:01:03;25.65;;;12.13;;
31728;SDS011;18309;43.658;1.312;2023-11-19T03:03:37;27.85;;;11.00;;
31728;SDS011;18309;43.658;1.312;2023-11-19T03:06:05;23.17;;;9.98;;
31728;SDS011;18309;43.658;1.312;2023-11-19T03:08:31;22.77;;;11.05;;
31728;SDS011;18309;43.658;1.312;2023-11-19T03:11:01;24.52;;;10.70;;
31728;SDS011;18309;43.658;1.312;2023-11-19T03:13:27;36.70;;;14.88;;
31728;SDS011;18309;43.658;1.312;2023-11-19T03:15:52;26.35;;;12.73;;
31728;SDS011;18309;43.658;1.312;2023-11-19T03:18:21;34.97;;;13.27;;
31728;SDS011;18309;43.658;1.312;2023-11-19T03:20:47;25.63;;;12.07;;
31728;SDS011;18309;43.658;1.312;2023-11-19T03:23:13;25.45;;;11.85;;
31728;SDS011;18309;43.658;1.312;2023-11-19T03:25:38;30.02;;;12.38;;
31728;SDS011;18309;43.658;1.312;2023-11-19T03:28:04;23.25;;;11.60;;
31728;SDS011;18309;43.658;1.312;2023-11-19T03:30:30;25.98;;;11.50;;
31728;SDS011;18309;43.658;1.312;2023-11-19T03:32:56;27.92;;;10.73;;
31728;SDS011;18309;43.658;1.312;2023-11-19T03:35:23;21.70;;;9.90;;
31728;SDS011;18309;43.658;1.312;2023-11-19T03:37:49;25.70;;;9.52;;
31728;SDS011;18309;43.658;1.312;2023-11-19T03:40:16;25.45;;;11.00;;
31728;SDS011;18309;43.658;1.312;2023-11-19T03:42:42;29.80;;;12.40;;
31728;SDS011;18309;43.658;1.312;2023-11-19T03:45:08;23.73;;;11.38;;
31728;SDS011;18309;43.658;1.312;2023-11-19T03:47:34;25.42;;;11.60;;
31728;SDS011;18309;43.658;1.312;2023-11-19T03:50:00;25.38;;;10.50;;
31728;SDS011;18309;43.658;1.312;2023-11-19T03:52:27;28.83;;;11.65;;
31728;SDS011;18309;43.658;1.312;2023-11-19T03:54:54;24.13;;;10.73;;
31728;SDS011;18309;43.658;1.312;2023-11-19T03:57:22;24.35;;;10.43;;
31728;SDS011;18309;43.658;1.312;2023-11-19T03:59:48;25.10;;;11.02;;
31728;SDS011;18309;43.658;1.312;2023-11-19T04:02:15;29.02;;;12.55;;
31728;SDS011;18309;43.658;1.312;2023-11-19T04:04:41;28.83;;;11.90;;
31728;SDS011;18309;43.658;1.312;2023-11-19T04:07:07;30.60;;;12.43;;
31728;SDS011;18309;43.658;1.312;2023-11-19T04:09:33;28.17;;;11.00;;
31728;SDS011;18309;43.658;1.312;2023-11-19T04:11:59;28.52;;;10.68;;
31728;SDS011;18309;43.658;1.312;2023-11-19T04:14:25;32.63;;;12.43;;
31728;SDS011;18309;43.658;1.312;2023-11-19T04:16:51;58.85;;;21.90;;
31728;SDS011;18309;43.658;1.312;2023-11-19T04:19:18;72.40;;;27.75;;
31728;SDS011;18309;43.658;1.312;2023-11-19T04:21:44;72.13;;;26.55;;
31728;SDS011;18309;43.658;1.312;2023-11-19T04:24:10;82.38;;;30.70;;
31728;SDS011;18309;43.658;1.312;2023-11-19T04:29:10;67.30;;;26.02;;
31728;SDS011;18309;43.658;1.312;2023-11-19T04:31:37;53.38;;;22.98;;
31728;SDS011;18309;43.658;1.312;2023-11-19T04:34:03;31.55;;;14.52;;
31728;SDS011;18309;43.658;1.312;2023-11-19T04:36:28;32.72;;;13.55;;
31728;SDS011;18309;43.658;1.312;2023-11-19T04:38:54;29.15;;;13.35;;
31728;SDS011;18309;43.658;1.312;2023-11-19T04:41:20;23.67;;;11.60;;
31728;SDS011;18309;43.658;1.312;2023-11-19T04:43:46;24.75;;;13.15;;
31728;SDS011;18309;43.658;1.312;2023-11-19T04:46:12;27.27;;;12.95;;
31728;SDS011;18309;43.658;1.312;2023-11-19T04:48:37;24.35;;;12.73;;
31728;SDS011;18309;43.658;1.312;2023-11-19T04:51:06;29.80;;;13.23;;
31728;SDS011;18309;43.658;1.312;2023-11-19T04:53:32;26.42;;;12.25;;
31728;SDS011;18309;43.658;1.312;2023-11-19T04:55:58;22.40;;;10.95;;
31728;SDS011;18309;43.658;1.312;2023-11-19T04:58:24;20.25;;;9.90;;
31728;SDS011;18309;43.658;1.312;2023-11-19T05:00:50;19.10;;;10.05;;
31728;SDS011;18309;43.658;1.312;2023-11-19T05:03:15;22.02;;;9.52;;
31728;SDS011;18309;43.658;1.312;2023-11-19T05:05:41;21.60;;;9.77;;
31728;SDS011;18309;43.658;1.312;2023-11-19T05:08:07;19.80;;;9.55;;
31728;SDS011;18309;43.658;1.312;2023-11-19T05:10:32;27.08;;;10.23;;
31728;SDS011;18309;43.658;1.312;2023-11-19T05:12:58;28.92;;;10.43;;
31728;SDS011;18309;43.658;1.312;2023-11-19T05:15:24;20.05;;;9.43;;
31728;SDS011;18309;43.658;1.312;2023-11-19T05:17:49;22.15;;;9.43;;
31728;SDS011;18309;43.658;1.312;2023-11-19T05:20:15;19.90;;;9.40;;
31728;SDS011;18309;43.658;1.312;2023-11-19T05:22:41;26.83;;;8.98;;
31728;SDS011;18309;43.658;1.312;2023-11-19T05:25:08;17.65;;;8.77;;
31728;SDS011;18309;43.658;1.312;2023-11-19T05:27:36;17.17;;;9.07;;
31728;SDS011;18309;43.658;1.312;2023-11-19T05:30:02;18.02;;;8.20;;
31728;SDS011;18309;43.658;1.312;2023-11-19T05:32:35;19.50;;;7.57;;
31728;SDS011;18309;43.658;1.312;2023-11-19T05:35:01;18.50;;;7.45;;
31728;SDS011;18309;43.658;1.312;2023-11-19T05:37:27;15.93;;;7.55;;
31728;SDS011;18309;43.658;1.312;2023-11-19T05:39:52;16.42;;;7.15;;
31728;SDS011;18309;43.658;1.312;2023-11-19T05:42:18;13.25;;;6.78;;
31728;SDS011;18309;43.658;1.312;2023-11-19T05:44:44;16.17;;;7.68;;
31728;SDS011;18309;43.658;1.312;2023-11-19T05:47:09;13.75;;;7.32;;
31728;SDS011;18309;43.658;1.312;2023-11-19T05:49:35;17.35;;;7.80;;
31728;SDS011;18309;43.658;1.312;2023-11-19T05:52:01;15.05;;;7.32;;
31728;SDS011;18309;43.658;1.312;2023-11-19T05:54:28;15.85;;;6.68;;
31728;SDS011;18309;43.658;1.312;2023-11-19T05:56:53;15.68;;;6.93;;
31728;SDS011;18309;43.658;1.312;2023-11-19T05:59:20;17.33;;;8.73;;
31728;SDS011;18309;43.658;1.312;2023-11-19T06:01:47;32.03;;;9.52;;
31728;SDS011;18309;43.658;1.312;2023-11-19T06:04:13;18.05;;;7.45;;
31728;SDS011;18309;43.658;1.312;2023-11-19T06:06:39;17.20;;;8.18;;
31728;SDS011;18309;43.658;1.312;2023-11-19T06:09:05;13.38;;;7.15;;
31728;SDS011;18309;43.658;1.312;2023-11-19T06:11:32;15.55;;;6.47;;
31728;SDS011;18309;43.658;1.312;2023-11-19T06:13:59;16.15;;;8.02;;
31728;SDS011;18309;43.658;1.312;2023-11-19T06:16:24;16.13;;;8.07;;
31728;SDS011;18309;43.658;1.312;2023-11-19T06:18:50;15.73;;;7.72;;
31728;SDS011;18309;43.658;1.312;2023-11-19T06:21:16;14.77;;;7.38;;
31728;SDS011;18309;43.658;1.312;2023-11-19T06:23:41;15.10;;;7.75;;
31728;SDS011;18309;43.658;1.312;2023-11-19T06:26:07;24.02;;;8.07;;
31728;SDS011;18309;43.658;1.312;2023-11-19T06:28:33;19.33;;;8.43;;
31728;SDS011;18309;43.658;1.312;2023-11-19T06:30:59;20.77;;;9.02;;
31728;SDS011;18309;43.658;1.312;2023-11-19T06:33:25;16.30;;;8.15;;
31728;SDS011;18309;43.658;1.312;2023-11-19T06:35:51;17.15;;;8.02;;
31728;SDS011;18309;43.658;1.312;2023-11-19T06:38:17;21.38;;;8.68;;
31728;SDS011;18309;43.658;1.312;2023-11-19T06:40:42;19.38;;;7.50;;
31728;SDS011;18309;43.658;1.312;2023-11-19T06:43:08;19.40;;;8.30;;
31728;SDS011;18309;43.658;1.312;2023-11-19T06:45:34;20.58;;;9.10;;
31728;SDS011;18309;43.658;1.312;2023-11-19T06:48:01;18.20;;;9.15;;
31728;SDS011;18309;43.658;1.312;2023-11-19T06:50:29;23.60;;;8.32;;
31728;SDS011;18309;43.658;1.312;2023-11-19T06:52:55;18.20;;;9.13;;
31728;SDS011;18309;43.658;1.312;2023-11-19T06:55:21;22.15;;;8.57;;
31728;SDS011;18309;43.658;1.312;2023-11-19T06:57:46;18.05;;;8.88;;
31728;SDS011;18309;43.658;1.312;2023-11-19T07:00:12;21.98;;;9.15;;
31728;SDS011;18309;43.658;1.312;2023-11-19T07:02:38;18.95;;;8.55;;
31728;SDS011;18309;43.658;1.312;2023-11-19T07:05:04;19.52;;;9.02;;
31728;SDS011;18309;43.658;1.312;2023-11-19T07:07:31;24.77;;;11.82;;
31728;SDS011;18309;43.658;1.312;2023-11-19T07:09:57;25.42;;;15.30;;
31728;SDS011;18309;43.658;1.312;2023-11-19T07:12:23;31.85;;;14.27;;
31728;SDS011;18309;43.658;1.312;2023-11-19T07:14:51;23.15;;;10.88;;
31728;SDS011;18309;43.658;1.312;2023-11-19T07:17:18;17.65;;;9.68;;
31728;SDS011;18309;43.658;1.312;2023-11-19T07:19:43;18.40;;;9.38;;
31728;SDS011;18309;43.658;1.312;2023-11-19T07:22:09;22.75;;;9.50;;
31728;SDS011;18309;43.658;1.312;2023-11-19T07:24:36;20.63;;;10.45;;
31728;SDS011;18309;43.658;1.312;2023-11-19T07:27:04;23.50;;;10.65;;
31728;SDS011;18309;43.658;1.312;2023-11-19T07:29:30;27.67;;;12.13;;
31728;SDS011;18309;43.658;1.312;2023-11-19T07:31:56;24.30;;;11.40;;
31728;SDS011;18309;43.658;1.312;2023-11-19T07:34:23;25.48;;;12.65;;
31728;SDS011;18309;43.658;1.312;2023-11-19T07:36:50;26.42;;;11.73;;
31728;SDS011;18309;43.658;1.312;2023-11-19T07:39:17;23.52;;;11.63;;
31728;SDS011;18309;43.658;1.312;2023-11-19T07:41:42;24.27;;;11.68;;
31728;SDS011;18309;43.658;1.312;2023-11-19T07:44:08;20.55;;;10.57;;
31728;SDS011;18309;43.658;1.312;2023-11-19T07:46:33;22.70;;;11.00;;
31728;SDS011;18309;43.658;1.312;2023-11-19T07:48:59;23.35;;;11.18;;
31728;SDS011;18309;43.658;1.312;2023-11-19T07:51:25;20.17;;;10.27;;
31728;SDS011;18309;43.658;1.312;2023-11-19T07:53:50;17.83;;;9.98;;
31728;SDS011;18309;43.658;1.312;2023-11-19T07:56:16;20.58;;;9.68;;
31728;SDS011;18309;43.658;1.312;2023-11-19T07:58:42;38.58;;;10.10;;
31728;SDS011;18309;43.658;1.312;2023-11-19T08:01:07;29.33;;;10.27;;
31728;SDS011;18309;43.658;1.312;2023-11-19T08:03:34;25.10;;;8.93;;
31728;SDS011;18309;43.658;1.312;2023-11-19T08:06:00;17.45;;;9.18;;
31728;SDS011;18309;43.658;1.312;2023-11-19T08:08:26;26.13;;;9.40;;
31728;SDS011;18309;43.658;1.312;2023-11-19T08:10:54;20.63;;;10.50;;
31728;SDS011;18309;43.658;1.312;2023-11-19T08:13:21;23.80;;;12.10;;
31728;SDS011;18309;43.658;1.312;2023-11-19T08:15:48;24.88;;;11.23;;
31728;SDS011;18309;43.658;1.312;2023-11-19T08:18:14;20.23;;;11.25;;
31728;SDS011;18309;43.658;1.312;2023-11-19T08:20:39;28.83;;;11.60;;
31728;SDS011;18309;43.658;1.312;2023-11-19T08:23:06;26.17;;;11.55;;
31728;SDS011;18309;43.658;1.312;2023-11-19T08:25:35;22.55;;;11.55;;
31728;SDS011;18309;43.658;1.312;2023-11-19T08:28:01;20.25;;;10.57;;
31728;SDS011;18309;43.658;1.312;2023-11-19T08:30:28;25.33;;;11.80;;
31728;SDS011;18309;43.658;1.312;2023-11-19T08:32:54;29.67;;;13.75;;
31728;SDS011;18309;43.658;1.312;2023-11-19T08:35:20;28.33;;;13.93;;
31728;SDS011;18309;43.658;1.312;2023-11-19T08:37:46;25.83;;;13.73;;
31728;SDS011;18309;43.658;1.312;2023-11-19T08:40:11;24.50;;;13.30;;
31728;SDS011;18309;43.658;1.312;2023-11-19T08:42:40;29.55;;;13.98;;
31728;SDS011;18309;43.658;1.312;2023-11-19T08:45:06;26.60;;;12.48;;
31728;SDS011;18309;43.658;1.312;2023-11-19T08:47:35;28.50;;;11.23;;
31728;SDS011;18309;43.658;1.312;2023-11-19T08:50:01;20.17;;;10.52;;
31728;SDS011;18309;43.658;1.312;2023-11-19T08:52:26;21.85;;;9.68;;
31728;SDS011;18309;43.658;1.312;2023-11-19T08:54:52;28.65;;;9.68;;
31728;SDS011;18309;43.658;1.312;2023-11-19T08:57:18;23.08;;;10.13;;
31728;SDS011;18309;43.658;1.312;2023-11-19T08:59:44;22.23;;;10.27;;
31728;SDS011;18309;43.658;1.312;2023-11-19T09:02:10;25.10;;;9.20;;
31728;SDS011;18309;43.658;1.312;2023-11-19T09:04:36;23.85;;;9.48;;
31728;SDS011;18309;43.658;1.312;2023-11-19T09:07:02;16.38;;;8.27;;
31728;SDS011;18309;43.658;1.312;2023-11-19T09:09:28;24.48;;;8.70;;
31728;SDS011;18309;43.658;1.312;2023-11-19T09:11:54;19.02;;;8.65;;
31728;SDS011;18309;43.658;1.312;2023-11-19T09:14:20;17.98;;;9.02;;
31728;SDS011;18309;43.658;1.312;2023-11-19T09:16:50;22.33;;;8.90;;
31728;SDS011;18309;43.658;1.312;2023-11-19T09:19:16;15.55;;;8.13;;
31728;SDS011;18309;43.658;1.312;2023-11-19T09:21:42;18.00;;;9.15;;
31728;SDS011;18309;43.658;1.312;2023-11-19T09:24:08;22.98;;;10.13;;
31728;SDS011;18309;43.658;1.312;2023-11-19T09:26:34;17.20;;;9.65;;
31728;SDS011;18309;43.658;1.312;2023-11-19T09:29:01;20.33;;;9.55;;
31728;SDS011;18309;43.658;1.312;2023-11-19T09:31:27;20.40;;;10.02;;
31728;SDS011;18309;43.658;1.312;2023-11-19T09:33:52;22.77;;;10.75;;
31728;SDS011;18309;43.658;1.312;2023-11-19T09:36:18;20.67;;;9.77;;
31728;SDS011;18309;43.658;1.312;2023-11-19T09:38:44;23.92;;;11.70;;
31728;SDS011;18309;43.658;1.312;2023-11-19T09:41:10;20.48;;;9.52;;
31728;SDS011;18309;43.658;1.312;2023-11-19T09:43:41;22.42;;;8.82;;
31728;SDS011;18309;43.658;1.312;2023-11-19T09:46:10;19.88;;;8.88;;
31728;SDS011;18309;43.658;1.312;2023-11-19T09:48:40;19.35;;;7.97;;
31728;SDS011;18309;43.658;1.312;2023-11-19T09:51:07;16.98;;;8.25;;
31728;SDS011;18309;43.658;1.312;2023-11-19T09:53:36;19.13;;;7.05;;
31728;SDS011;18309;43.658;1.312;2023-11-19T09:56:05;26.48;;;9.75;;
31728;SDS011;18309;43.658;1.312;2023-11-19T09:58:33;17.90;;;7.77;;
31728;SDS011;18309;43.658;1.312;2023-11-19T10:00:59;16.15;;;7.35;;
31728;SDS011;18309;43.658;1.312;2023-11-19T10:03:32;19.80;;;8.82;;
31728;SDS011;18309;43.658;1.312;2023-11-19T10:06:08;16.40;;;7.78;;
31728;SDS011;18309;43.658;1.312;2023-11-19T10:08:38;23.98;;;8.50;;
31728;SDS011;18309;43.658;1.312;2023-11-19T10:11:05;16.02;;;7.40;;
31728;SDS011;18309;43.658;1.312;2023-11-19T10:13:35;21.42;;;9.25;;
31728;SDS011;18309;43.658;1.312;2023-11-19T10:16:07;22.05;;;8.57;;
31728;SDS011;18309;43.658;1.312;2023-11-19T10:18:34;18.33;;;7.90;;
31728;SDS011;18309;43.658;1.312;2023-11-19T10:21:04;19.98;;;8.40;;
31728;SDS011;18309;43.658;1.312;2023-11-19T10:23:31;22.83;;;8.20;;
31728;SDS011;18309;43.658;1.312;2023-11-19T10:26:03;17.63;;;7.80;;
31728;SDS011;18309;43.658;1.312;2023-11-19T10:28:38;20.52;;;8.48;;
31728;SDS011;18309;43.658;1.312;2023-11-19T10:31:05;16.67;;;7.75;;
31728;SDS011;18309;43.658;1.312;2023-11-19T10:33:32;23.92;;;7.30;;
31728;SDS011;18309;43.658;1.312;2023-11-19T10:35:58;18.40;;;7.75;;
31728;SDS011;18309;43.658;1.312;2023-11-19T10:38:24;15.05;;;8.10;;
31728;SDS011;18309;43.658;1.312;2023-11-19T10:40:51;26.17;;;8.63;;
31728;SDS011;18309;43.658;1.312;2023-11-19T10:43:18;19.05;;;8.30;;
31728;SDS011;18309;43.658;1.312;2023-11-19T10:45:44;18.55;;;7.72;;
31728;SDS011;18309;43.658;1.312;2023-11-19T10:48:09;18.08;;;7.57;;
31728;SDS011;18309;43.658;1.312;2023-11-19T10:50:38;19.67;;;8.00;;
31728;SDS011;18309;43.658;1.312;2023-11-19T10:53:05;23.83;;;8.18;;
31728;SDS011;18309;43.658;1.312;2023-11-19T10:55:33;15.60;;;7.05;;
31728;SDS011;18309;43.658;1.312;2023-11-19T10:58:03;18.33;;;6.45;;
31728;SDS011;18309;43.658;1.312;2023-11-19T11:00:37;18.67;;;7.30;;
31728;SDS011;18309;43.658;1.312;2023-11-19T11:03:25;15.43;;;7.35;;
31728;SDS011;18309;43.658;1.312;2023-11-19T11:05:54;17.23;;;7.63;;
31728;SDS011;18309;43.658;1.312;2023-11-19T11:08:21;13.73;;;7.45;;
31728;SDS011;18309;43.658;1.312;2023-11-19T11:10:53;15.57;;;7.10;;
31728;SDS011;18309;43.658;1.312;2023-11-19T11:13:22;15.52;;;7.13;;
31728;SDS011;18309;43.658;1.312;2023-11-19T11:15:55;15.90;;;6.78;;
31728;SDS011;18309;43.658;1.312;2023-11-19T11:18:22;14.63;;;7.00;;
31728;SDS011;18309;43.658;1.312;2023-11-19T11:20:51;20.20;;;7.60;;
31728;SDS011;18309;43.658;1.312;2023-11-19T11:29:03;15.55;;;6.43;;
31728;SDS011;18309;43.658;1.312;2023-11-19T11:31:37;14.50;;;6.22;;
31728;SDS011;18309;43.658;1.312;2023-11-19T11:37:02;16.65;;;6.40;;
31728;SDS011;18309;43.658;1.312;2023-11-19T11:39:41;17.52;;;5.25;;
31728;SDS011;18309;43.658;1.312;2023-11-19T11:50:10;12.45;;;5.75;;
31728;SDS011;18309;43.658;1.312;2023-11-19T11:56:08;15.45;;;5.85;;
31728;SDS011;18309;43.658;1.312;2023-11-19T11:58:22;16.20;;;6.10;;
31728;SDS011;18309;43.658;1.312;2023-11-19T12:00:51;14.02;;;5.38;;
31728;SDS011;18309;43.658;1.312;2023-11-19T12:03:19;16.17;;;6.63;;
31728;SDS011;18309;43.658;1.312;2023-11-19T12:05:47;19.58;;;6.25;;
31728;SDS011;18309;43.658;1.312;2023-11-19T12:08:14;10.18;;;4.70;;
31728;SDS011;18309;43.658;1.312;2023-11-19T12:13:18;19.00;;;5.70;;
31728;SDS011;18309;43.658;1.312;2023-11-19T12:18:27;11.05;;;5.53;;
31728;SDS011;18309;43.658;1.312;2023-11-19T12:20:57;9.65;;;4.63;;
31728;SDS011;18309;43.658;1.312;2023-11-19T12:23:29;11.18;;;5.13;;
31728;SDS011;18309;43.658;1.312;2023-11-19T12:25:55;13.73;;;5.90;;
31728;SDS011;18309;43.658;1.312;2023-11-19T12:28:21;13.70;;;5.28;;
31728;SDS011;18309;43.658;1.312;2023-11-19T12:30:50;13.98;;;5.85;;
31728;SDS011;18309;43.658;1.312;2023-11-19T12:33:16;12.90;;;5.97;;
31728;SDS011;18309;43.658;1.312;2023-11-19T12:35:44;15.65;;;5.38;;
31728;SDS011;18309;43.658;1.312;2023-11-19T12:38:20;16.00;;;6.63;;
31728;SDS011;18309;43.658;1.312;2023-11-19T12:40:47;12.07;;;5.60;;
31728;SDS011;18309;43.658;1.312;2023-11-19T12:43:27;14.35;;;5.70;;
31728;SDS011;18309;43.658;1.312;2023-11-19T12:45:52;14.02;;;5.90;;
31728;SDS011;18309;43.658;1.312;2023-11-19T12:48:18;13.50;;;7.57;;
31728;SDS011;18309;43.658;1.312;2023-11-19T12:50:53;16.70;;;9.52;;
31728;SDS011;18309;43.658;1.312;2023-11-19T12:53:22;22.95;;;11.13;;
31728;SDS011;18309;43.658;1.312;2023-11-19T12:55:49;31.00;;;10.63;;
31728;SDS011;18309;43.658;1.312;2023-11-19T12:58:31;22.58;;;9.00;;
31728;SDS011;18309;43.658;1.312;2023-11-19T13:01:03;18.85;;;8.85;;
31728;SDS011;18309;43.658;1.312;2023-11-19T13:03:34;16.17;;;7.40;;
31728;SDS011;18309;43.658;1.312;2023-11-19T13:06:03;20.08;;;6.57;;
31728;SDS011;18309;43.658;1.312;2023-11-19T13:08:29;11.45;;;6.50;;
31728;SDS011;18309;43.658;1.312;2023-11-19T13:11:04;12.05;;;6.75;;
31728;SDS011;18309;43.658;1.312;2023-11-19T13:13:31;16.08;;;8.90;;
31728;SDS011;18309;43.658;1.312;2023-11-19T13:16:03;23.98;;;12.23;;
31728;SDS011;18309;43.658;1.312;2023-11-19T13:18:30;18.42;;;8.95;;
31728;SDS011;18309;43.658;1.312;2023-11-19T13:20:56;14.95;;;7.25;;
31728;SDS011;18309;43.658;1.312;2023-11-19T13:23:24;16.02;;;8.43;;
31728;SDS011;18309;43.658;1.312;2023-11-19T13:25:50;15.48;;;6.32;;
31728;SDS011;18309;43.658;1.312;2023-11-19T13:28:16;22.05;;;5.82;;
31728;SDS011;18309;43.658;1.312;2023-11-19T13:30:41;14.20;;;4.35;;
31728;SDS011;18309;43.658;1.312;2023-11-19T13:33:07;9.55;;;5.38;;
31728;SDS011;18309;43.658;1.312;2023-11-19T13:35:35;11.88;;;4.35;;
31728;SDS011;18309;43.658;1.312;2023-11-19T13:38:01;9.57;;;4.20;;
31728;SDS011;18309;43.658;1.312;2023-11-19T13:40:27;10.73;;;4.20;;
31728;SDS011;18309;43.658;1.312;2023-11-19T13:42:53;10.00;;;4.90;;
31728;SDS011;18309;43.658;1.312;2023-11-19T13:45:19;14.52;;;5.47;;
31728;SDS011;18309;43.658;1.312;2023-11-19T13:47:45;16.17;;;5.20;;
31728;SDS011;18309;43.658;1.312;2023-11-19T13:50:15;10.25;;;4.68;;
31728;SDS011;18309;43.658;1.312;2023-11-19T13:52:42;8.40;;;3.90;;
31728;SDS011;18309;43.658;1.312;2023-11-19T13:55:10;12.20;;;5.55;;
31728;SDS011;18309;43.658;1.312;2023-11-19T13:57:40;11.30;;;5.03;;
31728;SDS011;18309;43.658;1.312;2023-11-19T14:02:44;8.43;;;4.13;;
31728;SDS011;18309;43.658;1.312;2023-11-19T14:05:11;10.50;;;5.60;;
31728;SDS011;18309;43.658;1.312;2023-11-19T14:07:41;11.27;;;5.25;;
31728;SDS011;18309;43.658;1.312;2023-11-19T14:10:07;8.70;;;4.70;;
31728;SDS011;18309;43.658;1.312;2023-11-19T14:12:42;16.02;;;8.48;;
31728;SDS011;18309;43.658;1.312;2023-11-19T14:15:08;11.45;;;5.63;;
31728;SDS011;18309;43.658;1.312;2023-11-19T14:17:35;13.85;;;5.03;;
31728;SDS011;18309;43.658;1.312;2023-11-19T14:20:04;8.82;;;4.93;;
31728;SDS011;18309;43.658;1.312;2023-11-19T14:22:49;10.77;;;3.72;;
31728;SDS011;18309;43.658;1.312;2023-11-19T14:25:16;6.30;;;3.60;;
31728;SDS011;18309;43.658;1.312;2023-11-19T14:27:42;9.23;;;3.60;;
31728;SDS011;18309;43.658;1.312;2023-11-19T14:30:10;7.72;;;4.10;;
31728;SDS011;18309;43.658;1.312;2023-11-19T14:32:38;15.27;;;5.15;;
31728;SDS011;18309;43.658;1.312;2023-11-19T14:35:05;12.18;;;5.97;;
31728;SDS011;18309;43.658;1.312;2023-11-19T14:37:32;13.80;;;6.20;;
31728;SDS011;18309;43.658;1.312;2023-11-19T14:39:58;12.93;;;6.00;;
31728;SDS011;18309;43.658;1.312;2023-11-19T14:42:24;17.30;;;6.07;;
31728;SDS011;18309;43.658;1.312;2023-11-19T14:44:51;10.43;;;4.28;;
31728;SDS011;18309;43.658;1.312;2023-11-19T14:47:20;9.70;;;4.18;;
31728;SDS011;18309;43.658;1.312;2023-11-19T14:49:46;6.15;;;3.65;;
31728;SDS011;18309;43.658;1.312;2023-11-19T14:52:12;7.82;;;4.13;;
31728;SDS011;18309;43.658;1.312;2023-11-19T14:54:38;11.38;;;4.35;;
31728;SDS011;18309;43.658;1.312;2023-11-19T14:57:04;10.63;;;4.05;;
31728;SDS011;18309;43.658;1.312;2023-11-19T14:59:39;8.75;;;4.00;;
31728;SDS011;18309;43.658;1.312;2023-11-19T15:02:04;11.38;;;4.53;;
31728;SDS011;18309;43.658;1.312;2023-11-19T15:04:33;6.45;;;4.30;;
31728;SDS011;18309;43.658;1.312;2023-11-19T15:06:59;10.00;;;4.78;;